createdAt,value
2019-02-16T00:02:23.723Z,15.55
2019-02-16T00:04:51.119Z,15.95
2019-02-16T00:07:18.494Z,15.60
2019-02-16T00:09:45.909Z,15.63
2019-02-16T00:12:13.273Z,15.18
2019-02-16T00:14:40.694Z,15.53
2019-02-16T00:17:08.073Z,16.20
2019-02-16T00:19:35.403Z,16.52
2019-02-16T00:22:02.756Z,16.00
2019-02-16T00:24:30.145Z,14.95
2019-02-16T00:26:57.510Z,14.98
2019-02-16T00:29:24.814Z,15.88
2019-02-16T00:31:52.154Z,16.02
2019-02-16T00:34:19.590Z,15.32
2019-02-16T00:36:47.018Z,16.73
2019-02-16T00:39:14.442Z,15.03
2019-02-16T00:41:41.856Z,15.58
2019-02-16T00:44:09.182Z,15.60
2019-02-16T00:46:36.583Z,16.17
2019-02-16T00:49:03.883Z,17.62
2019-02-16T00:51:31.211Z,16.52
2019-02-16T00:53:59.184Z,16.70
2019-02-16T00:56:26.505Z,15.90
2019-02-16T00:58:53.821Z,17.20
2019-02-16T01:01:21.233Z,15.48
2019-02-16T01:03:48.547Z,16.12
2019-02-16T01:06:15.991Z,15.60
2019-02-16T01:08:43.357Z,16.05
2019-02-16T01:11:10.695Z,16.00
2019-02-16T01:13:38.209Z,17.02
2019-02-16T01:16:05.508Z,17.10
2019-02-16T01:18:32.843Z,16.77
2019-02-16T01:21:00.212Z,15.50
2019-02-16T01:23:27.933Z,17.40
2019-02-16T01:25:55.322Z,15.40
2019-02-16T01:28:22.600Z,16.32
2019-02-16T01:30:50.258Z,17.32
2019-02-16T01:33:17.697Z,17.75
2019-02-16T01:35:45.088Z,17.45
2019-02-16T01:38:12.413Z,17.12
2019-02-16T01:40:39.778Z,16.32
2019-02-16T01:43:07.032Z,17.82
2019-02-16T01:45:34.327Z,16.93
2019-02-16T01:48:01.642Z,17.27
2019-02-16T01:50:28.915Z,16.95
2019-02-16T01:52:56.346Z,16.65
2019-02-16T01:55:24.104Z,15.98
2019-02-16T01:57:51.372Z,17.35
2019-02-16T02:00:18.701Z,15.53
2019-02-16T02:02:45.991Z,17.37
2019-02-16T02:05:13.276Z,15.85
2019-02-16T02:07:40.682Z,17.52
2019-02-16T02:10:08.429Z,14.93
2019-02-16T02:12:35.760Z,15.95
2019-02-16T02:15:03.184Z,15.93
2019-02-16T02:17:30.513Z,16.35
2019-02-16T02:19:57.832Z,15.18
2019-02-16T02:22:25.226Z,14.65
2019-02-16T02:24:52.534Z,16.27
2019-02-16T02:27:19.867Z,15.58
2019-02-16T02:29:47.266Z,16.23
2019-02-16T02:32:14.655Z,15.55
2019-02-16T02:34:42.018Z,14.63
2019-02-16T02:37:09.736Z,14.85
2019-02-16T02:39:37.063Z,14.20
2019-02-16T02:42:04.366Z,14.78
2019-02-16T02:44:31.589Z,15.20
2019-02-16T02:46:58.980Z,13.90
2019-02-16T02:49:26.297Z,15.03
2019-02-16T02:51:53.604Z,13.80
2019-02-16T02:54:20.925Z,14.30
2019-02-16T02:56:48.248Z,14.05
2019-02-16T02:59:15.700Z,13.68
2019-02-16T03:01:43.019Z,14.00
2019-02-16T03:04:10.314Z,13.50
2019-02-16T03:06:37.654Z,13.15
2019-02-16T03:09:07.013Z,14.45
2019-02-16T03:11:34.330Z,14.13
2019-02-16T03:14:01.666Z,13.60
2019-02-16T03:16:28.994Z,13.62
2019-02-16T03:18:56.398Z,13.58
2019-02-16T03:21:23.704Z,14.63
2019-02-16T03:23:51.097Z,14.80
2019-02-16T03:27:08.426Z,14.28
2019-02-16T03:30:05.160Z,13.70
2019-02-16T03:32:59.017Z,15.28
2019-02-16T03:36:00.404Z,13.68
2019-02-16T03:38:37.411Z,13.10
2019-02-16T03:41:04.769Z,13.38
2019-02-16T03:43:32.231Z,12.53
2019-02-16T03:45:59.620Z,12.45
2019-02-16T03:48:26.903Z,12.85
2019-02-16T03:50:54.227Z,13.78
2019-02-16T03:53:21.608Z,12.58
2019-02-16T03:55:49.046Z,13.85
2019-02-16T03:58:16.415Z,13.22
2019-02-16T04:00:43.762Z,13.53
2019-02-16T04:03:11.348Z,13.15
2019-02-16T04:05:38.676Z,12.07
2019-02-16T04:08:06.010Z,13.53
2019-02-16T04:10:33.305Z,12.85
2019-02-16T04:13:00.652Z,13.53
2019-02-16T04:15:28.041Z,13.45
2019-02-16T04:17:55.359Z,13.22
2019-02-16T04:20:22.766Z,12.65
2019-02-16T04:22:50.132Z,12.98
2019-02-16T04:25:17.429Z,12.60
2019-02-16T04:27:45.154Z,12.05
2019-02-16T04:30:12.589Z,12.95
2019-02-16T04:32:39.897Z,12.30
2019-02-16T04:35:07.345Z,12.07
2019-02-16T04:37:34.681Z,13.50
2019-02-16T04:40:02.050Z,13.25
2019-02-16T04:42:29.803Z,13.10
2019-02-16T04:44:57.498Z,12.88
2019-02-16T04:47:24.919Z,11.78
2019-02-16T04:49:52.184Z,12.88
2019-02-16T04:52:19.487Z,12.95
2019-02-16T04:54:46.902Z,12.00
2019-02-16T04:57:14.308Z,13.18
2019-02-16T04:59:41.624Z,13.15
2019-02-16T05:02:08.936Z,12.10
2019-02-16T05:04:36.116Z,12.60
2019-02-16T05:07:03.480Z,12.37
2019-02-16T05:09:30.801Z,11.53
2019-02-16T05:11:58.010Z,12.30
2019-02-16T05:14:25.339Z,12.28
2019-02-16T05:16:52.620Z,12.20
2019-02-16T05:19:19.997Z,11.38
2019-02-16T05:21:47.327Z,12.82
2019-02-16T05:24:15.045Z,12.35
2019-02-16T05:26:42.345Z,13.48
2019-02-16T05:29:09.672Z,11.05
2019-02-16T05:31:37.141Z,12.15
2019-02-16T05:34:04.517Z,12.30
2019-02-16T05:36:31.889Z,11.10
2019-02-16T05:38:59.274Z,11.88
2019-02-16T05:41:26.571Z,11.03
2019-02-16T05:43:53.888Z,11.50
2019-02-16T05:46:24.577Z,11.97
2019-02-16T05:48:51.255Z,13.10
2019-02-16T05:51:18.617Z,13.32
2019-02-16T05:53:46.245Z,12.37
2019-02-16T05:56:13.577Z,11.88
2019-02-16T05:58:40.903Z,12.82
2019-02-16T06:01:08.360Z,12.82
2019-02-16T06:03:35.727Z,11.73
2019-02-16T06:06:03.052Z,11.85
2019-02-16T06:08:30.477Z,12.10
2019-02-16T06:10:58.100Z,13.03
2019-02-16T06:13:25.531Z,12.63
2019-02-16T06:15:52.964Z,13.10
2019-02-16T06:18:20.401Z,13.38
2019-02-16T06:20:48.125Z,12.43
2019-02-16T06:23:15.647Z,15.13
2019-02-16T06:25:42.969Z,13.68
2019-02-16T06:28:10.403Z,13.38
2019-02-16T06:30:38.034Z,11.73
2019-02-16T06:33:05.355Z,12.53
2019-02-16T06:35:36.782Z,12.03
2019-02-16T06:38:04.116Z,11.75
2019-02-16T06:40:31.410Z,11.95
2019-02-16T06:42:58.845Z,11.83
2019-02-16T06:45:26.282Z,12.25
2019-02-16T06:47:53.970Z,12.28
2019-02-16T06:50:21.379Z,13.15
2019-02-16T06:52:48.946Z,14.75
2019-02-16T06:55:16.348Z,14.87
2019-02-16T06:57:47.126Z,13.38
2019-02-16T07:00:16.471Z,13.75
2019-02-16T07:02:43.931Z,12.43
2019-02-16T07:05:11.362Z,13.10
2019-02-16T07:07:39.227Z,13.58
2019-02-16T07:10:07.217Z,12.98
2019-02-16T07:12:34.962Z,12.98
2019-02-16T07:15:02.323Z,13.30
2019-02-16T07:17:49.299Z,13.78
2019-02-16T07:20:18.883Z,13.18
2019-02-16T07:22:46.599Z,12.70
2019-02-16T07:25:14.002Z,12.15
2019-02-16T07:27:41.379Z,13.58
2019-02-16T07:30:09.324Z,14.07
2019-02-16T07:32:36.733Z,13.20
2019-02-16T07:35:06.200Z,12.50
2019-02-16T07:37:33.512Z,15.28
2019-02-16T07:40:00.917Z,13.13
2019-02-16T07:42:48.276Z,13.25
2019-02-16T07:45:40.248Z,11.90
2019-02-16T07:48:39.131Z,13.05
2019-02-16T07:51:26.342Z,13.70
2019-02-16T07:54:09.275Z,14.73
2019-02-16T07:56:45.771Z,14.15
2019-02-16T07:59:24.944Z,12.95
2019-02-16T08:01:59.738Z,14.25
2019-02-16T08:04:45.166Z,13.98
2019-02-16T08:07:38.242Z,12.60
2019-02-16T08:10:25.275Z,13.30
2019-02-16T08:13:01.368Z,12.70
2019-02-16T08:15:54.446Z,11.68
2019-02-16T08:18:39.824Z,11.68
2019-02-16T08:21:29.736Z,12.23
2019-02-16T08:24:16.597Z,12.70
2019-02-16T08:27:12.038Z,11.38
2019-02-16T08:30:01.745Z,13.78
2019-02-16T08:32:47.288Z,12.13
2019-02-16T08:35:39.871Z,12.15
2019-02-16T08:38:15.407Z,12.55
2019-02-16T08:40:49.336Z,14.18
2019-02-16T08:43:34.216Z,13.18
2019-02-16T08:46:26.975Z,14.73
2019-02-16T08:49:04.533Z,13.50
2019-02-16T08:51:47.575Z,13.90
2019-02-16T08:54:34.419Z,17.15
2019-02-16T08:57:13.594Z,15.18
2019-02-16T08:59:58.778Z,14.60
2019-02-16T09:02:53.222Z,16.17
2019-02-16T09:05:58.196Z,17.98
2019-02-16T09:08:43.973Z,20.60
2019-02-16T09:11:22.317Z,18.60
2019-02-16T09:13:58.827Z,17.37
2019-02-16T09:16:40.040Z,17.42
2019-02-16T09:19:25.763Z,21.05
2019-02-16T09:22:08.259Z,21.73
2019-02-16T09:24:50.739Z,20.55
2019-02-16T09:27:39.642Z,20.95
2019-02-16T09:30:28.453Z,22.20
2019-02-16T09:33:15.337Z,20.00
2019-02-16T09:36:13.933Z,23.95
2019-02-16T09:38:49.951Z,22.37
2019-02-16T09:41:35.508Z,22.90
2019-02-16T09:44:28.576Z,25.55
2019-02-16T09:47:14.423Z,25.30
2019-02-16T09:50:00.340Z,23.73
2019-02-16T09:52:44.898Z,24.65
2019-02-16T09:55:21.169Z,25.40
2019-02-16T09:58:10.962Z,27.87
2019-02-16T10:00:43.604Z,25.35
2019-02-16T10:03:45.545Z,25.92
2019-02-16T10:06:31.191Z,29.37
2019-02-16T10:09:09.978Z,28.25
2019-02-16T10:12:11.939Z,32.33
2019-02-16T10:14:48.302Z,29.27
2019-02-16T10:17:33.759Z,32.40
2019-02-16T10:20:26.707Z,32.78
2019-02-16T10:23:12.290Z,31.57
2019-02-16T10:26:03.346Z,29.95
2019-02-16T10:28:50.526Z,28.38
2019-02-16T10:31:40.774Z,30.23
2019-02-16T10:34:27.663Z,28.25
2019-02-16T10:37:12.965Z,29.45
2019-02-16T10:39:55.228Z,29.87
2019-02-16T10:42:34.707Z,28.73
2019-02-16T10:45:21.624Z,31.65
2019-02-16T10:48:07.515Z,28.50
2019-02-16T10:50:45.242Z,28.12
2019-02-16T10:53:24.102Z,29.40
2019-02-16T10:56:23.603Z,28.90
2019-02-16T10:59:10.527Z,32.10
2019-02-16T11:01:56.162Z,27.95
2019-02-16T11:04:38.214Z,28.15
2019-02-16T11:07:12.300Z,28.62
2019-02-16T11:09:59.380Z,26.90
2019-02-16T11:12:49.304Z,28.20
2019-02-16T11:15:26.106Z,27.90
2019-02-16T11:18:16.074Z,26.95
2019-02-16T11:21:01.819Z,26.00
2019-02-16T11:23:48.657Z,28.05
2019-02-16T11:26:30.045Z,24.63
2019-02-16T11:29:15.945Z,25.55
2019-02-16T11:31:54.861Z,25.12
2019-02-16T11:34:50.615Z,26.37
2019-02-16T11:37:40.439Z,28.20
2019-02-16T11:40:27.385Z,24.82
2019-02-16T11:43:14.847Z,26.00
2019-02-16T11:45:48.017Z,24.05
2019-02-16T11:48:44.015Z,26.37
2019-02-16T11:51:31.771Z,26.15
2019-02-16T11:54:09.869Z,26.35
2019-02-16T11:56:59.119Z,25.92
2019-02-16T11:59:51.742Z,25.12
2019-02-16T12:02:27.940Z,25.77
2019-02-16T12:05:14.773Z,24.30
2019-02-16T12:08:05.870Z,23.98
2019-02-16T12:10:51.351Z,25.35
2019-02-16T12:13:34.066Z,26.40
2019-02-16T12:16:33.321Z,26.37
2019-02-16T12:19:35.421Z,25.62
2019-02-16T12:22:37.658Z,27.30
2019-02-16T12:25:24.595Z,26.93
2019-02-16T12:28:17.248Z,23.60
2019-02-16T12:30:57.971Z,25.35
2019-02-16T12:33:32.267Z,25.12
2019-02-16T12:36:24.752Z,24.02
2019-02-16T12:39:12.062Z,26.00
2019-02-16T12:41:57.558Z,25.75
2019-02-16T12:44:29.259Z,24.65
2019-02-16T12:47:12.173Z,23.50
2019-02-16T12:50:01.306Z,24.85
2019-02-16T12:52:51.757Z,24.20
2019-02-16T12:55:34.453Z,24.90
2019-02-16T12:58:19.239Z,25.52
2019-02-16T13:01:14.951Z,23.95
2019-02-16T13:04:00.756Z,24.60
2019-02-16T13:06:50.391Z,23.83
2019-02-16T13:09:49.284Z,24.87
2019-02-16T13:12:23.009Z,23.10
2019-02-16T13:15:15.713Z,25.10
2019-02-16T13:18:05.661Z,22.27
2019-02-16T13:21:04.630Z,22.40
2019-02-16T13:23:49.790Z,24.90
2019-02-16T13:26:31.215Z,24.17
2019-02-16T13:29:21.357Z,26.53
2019-02-16T13:32:17.481Z,24.03
2019-02-16T13:34:53.567Z,24.07
2019-02-16T13:37:37.402Z,23.40
2019-02-16T13:40:24.277Z,22.20
2019-02-16T13:43:22.003Z,22.73
2019-02-16T13:45:55.970Z,21.53
2019-02-16T13:48:27.773Z,22.27
2019-02-16T13:51:12.778Z,24.20
2019-02-16T13:54:02.679Z,22.23
2019-02-16T13:56:49.627Z,22.03
2019-02-16T13:59:36.509Z,21.57
2019-02-16T14:02:23.430Z,20.47
2019-02-16T14:05:10.328Z,21.53
2019-02-16T14:07:45.771Z,22.73
2019-02-16T14:10:32.742Z,23.93
2019-02-16T14:13:15.550Z,22.67
2019-02-16T14:16:05.230Z,20.93
2019-02-16T14:18:32.683Z,21.77
2019-02-16T14:21:00.170Z,19.80
2019-02-16T14:23:28.574Z,21.23
2019-02-16T14:25:56.128Z,19.77
2019-02-16T14:28:23.880Z,19.40
2019-02-16T14:30:51.539Z,22.00
2019-02-16T14:33:18.891Z,20.77
2019-02-16T14:35:46.339Z,20.03
2019-02-16T14:38:33.588Z,20.10
2019-02-16T14:41:01.316Z,19.00
2019-02-16T14:43:28.672Z,17.80
2019-02-16T14:45:56.303Z,18.43
2019-02-16T14:48:23.621Z,20.17
2019-02-16T14:50:51.033Z,19.80
2019-02-16T14:53:18.473Z,19.07
2019-02-16T14:55:52.278Z,17.27
2019-02-16T14:58:15.217Z,19.43
2019-02-16T15:00:42.979Z,19.07
2019-02-16T15:03:10.334Z,19.33
2019-02-16T15:05:37.853Z,17.93
2019-02-16T15:08:05.594Z,18.13
2019-02-16T15:10:33.050Z,18.60
2019-02-16T15:13:00.581Z,17.50
2019-02-16T15:15:28.075Z,17.83
2019-02-16T15:17:55.507Z,17.40
2019-02-16T15:20:23.003Z,17.90
2019-02-16T15:22:50.388Z,16.63
2019-02-16T15:25:17.794Z,17.50
2019-02-16T15:27:45.231Z,16.90
2019-02-16T15:30:14.573Z,17.63
2019-02-16T15:32:42.325Z,16.20
2019-02-16T15:35:10.277Z,16.13
2019-02-16T15:37:37.674Z,15.93
2019-02-16T15:40:05.183Z,15.70
2019-02-16T15:42:32.638Z,14.30
2019-02-16T15:45:00.014Z,14.97
2019-02-16T15:47:27.515Z,14.30
2019-02-16T15:49:54.914Z,15.87
2019-02-16T15:52:22.374Z,14.27
2019-02-16T15:54:50.668Z,14.40
2019-02-16T15:57:18.130Z,15.30
2019-02-16T15:59:45.609Z,13.40
2019-02-16T16:02:13.084Z,14.50
2019-02-16T16:04:40.504Z,13.50
2019-02-16T16:07:13.389Z,13.83
2019-02-16T16:09:57.659Z,17.27
2019-02-16T16:12:43.386Z,15.50
2019-02-16T16:15:30.363Z,16.73
2019-02-16T16:18:20.106Z,14.20
2019-02-16T16:21:05.767Z,16.27
2019-02-16T16:23:55.670Z,15.07
2019-02-16T16:26:37.308Z,15.45
2019-02-16T16:29:24.176Z,14.60
2019-02-16T16:32:01.915Z,13.45
2019-02-16T16:34:45.850Z,16.00
2019-02-16T16:37:42.001Z,15.68
2019-02-16T16:40:28.940Z,15.03
2019-02-16T16:43:14.647Z,13.38
2019-02-16T16:47:51.863Z,17.32
2019-02-16T16:50:35.620Z,18.85
2019-02-16T16:53:21.114Z,17.37
2019-02-16T16:56:02.214Z,15.43
2019-02-16T16:58:52.189Z,16.70
2019-02-16T17:01:41.875Z,17.75
2019-02-16T17:04:34.229Z,17.35
2019-02-16T17:07:24.902Z,16.20
2019-02-16T17:10:21.100Z,17.20
2019-02-16T17:12:55.332Z,17.02
2019-02-16T17:15:48.054Z,16.35
2019-02-16T17:18:34.958Z,17.55
2019-02-16T17:21:25.056Z,15.85
2019-02-16T17:24:03.917Z,17.55
2019-02-16T17:26:55.756Z,16.42
2019-02-16T17:29:51.608Z,16.82
2019-02-16T17:32:33.881Z,17.60
2019-02-16T17:35:19.650Z,15.72
2019-02-16T17:38:05.180Z,17.30
2019-02-16T17:40:48.451Z,17.10
2019-02-16T17:43:42.582Z,17.57
2019-02-16T17:46:28.392Z,18.85
2019-02-16T17:49:18.655Z,17.98
2019-02-16T17:52:04.245Z,17.95
2019-02-16T17:54:53.068Z,18.42
2019-02-16T17:57:54.989Z,16.55
2019-02-16T18:00:32.364Z,17.48
2019-02-16T18:03:08.213Z,18.17
2019-02-16T18:05:55.136Z,17.90
2019-02-16T18:08:44.748Z,21.40
2019-02-16T18:11:23.263Z,18.42
2019-02-16T18:14:08.679Z,17.07
2019-02-16T18:16:55.705Z,18.52
2019-02-16T18:19:28.350Z,19.90
2019-02-16T18:22:21.635Z,20.90
2019-02-16T18:25:02.037Z,19.95
2019-02-16T18:27:55.755Z,20.30
2019-02-16T18:30:41.449Z,18.32
2019-02-16T18:33:26.503Z,17.77
2019-02-16T18:36:04.017Z,19.77
2019-02-16T18:38:38.715Z,20.43
2019-02-16T18:41:37.692Z,19.52
2019-02-16T18:44:21.060Z,20.70
2019-02-16T18:47:07.905Z,20.48
2019-02-16T18:50:01.214Z,19.75
2019-02-16T18:52:47.147Z,22.15
2019-02-16T18:55:32.970Z,20.43
2019-02-16T18:58:08.229Z,21.15
2019-02-16T19:00:46.288Z,22.98
2019-02-16T19:03:42.543Z,26.15
2019-02-16T19:06:44.992Z,23.62
2019-02-16T19:09:40.761Z,22.50
2019-02-16T19:12:26.171Z,24.07
2019-02-16T19:15:00.342Z,23.90
2019-02-16T19:17:50.327Z,23.25
2019-02-16T19:20:37.309Z,23.35
2019-02-16T19:23:32.331Z,25.68
2019-02-16T19:26:16.598Z,21.97
2019-02-16T19:28:55.938Z,24.15
2019-02-16T19:31:34.097Z,22.42
2019-02-16T19:34:36.469Z,22.85
2019-02-16T19:37:23.504Z,23.40
2019-02-16T19:40:10.481Z,23.10
2019-02-16T19:42:54.383Z,23.92
2019-02-16T19:45:44.233Z,25.62
2019-02-16T19:48:34.368Z,24.20
2019-02-16T19:51:39.630Z,24.15
2019-02-16T19:54:17.314Z,23.38
2019-02-16T19:57:13.818Z,22.40
2019-02-16T19:59:54.014Z,22.75
2019-02-16T20:02:53.239Z,22.58
2019-02-16T20:05:49.168Z,22.87
2019-02-16T20:08:31.722Z,22.95
2019-02-16T20:11:18.760Z,23.65
2019-02-16T20:14:05.766Z,22.40
2019-02-16T20:16:52.762Z,23.42
2019-02-16T20:19:51.784Z,22.60
2019-02-16T20:22:30.139Z,23.62
2019-02-16T20:25:16.065Z,22.82
2019-02-16T20:27:49.976Z,23.02
2019-02-16T20:30:39.694Z,23.55
2019-02-16T20:33:26.795Z,23.77
2019-02-16T20:36:05.635Z,23.77
2019-02-16T20:38:55.647Z,23.83
2019-02-16T20:41:41.215Z,24.63
2019-02-16T20:44:27.237Z,24.95
2019-02-16T20:47:07.336Z,26.50
2019-02-16T20:49:42.692Z,25.62
2019-02-16T20:52:22.600Z,23.50
2019-02-16T20:54:56.742Z,22.98
2019-02-16T20:57:47.638Z,24.98
2019-02-16T21:00:30.288Z,24.23
2019-02-16T21:03:06.532Z,25.35
2019-02-16T21:05:53.482Z,25.45
2019-02-16T21:08:58.378Z,24.87
2019-02-16T21:11:45.238Z,24.25
2019-02-16T21:14:23.403Z,27.70
2019-02-16T21:17:09.009Z,24.23
2019-02-16T21:20:11.279Z,23.60
2019-02-16T21:22:49.340Z,23.45
2019-02-16T21:25:38.118Z,24.37
2019-02-16T21:28:40.089Z,22.80
2019-02-16T21:31:24.811Z,25.23
2019-02-16T21:34:06.030Z,24.47
2019-02-16T21:36:41.146Z,22.52
2019-02-16T21:39:17.259Z,24.95
2019-02-16T21:41:56.013Z,20.12
2019-02-16T21:44:44.242Z,20.20
2019-02-16T21:47:37.340Z,20.95
2019-02-16T21:50:27.329Z,21.55
2019-02-16T21:53:23.301Z,19.27
2019-02-16T21:56:10.288Z,20.60
2019-02-16T21:58:56.272Z,20.75
2019-02-16T22:01:33.542Z,20.50
2019-02-16T22:04:26.621Z,20.57
2019-02-16T22:07:07.154Z,18.82
2019-02-16T22:09:46.995Z,20.70
2019-02-16T22:12:48.821Z,19.48
2019-02-16T22:15:16.277Z,21.40
2019-02-16T22:17:43.755Z,20.68
2019-02-16T22:20:11.181Z,21.52
2019-02-16T22:22:39.044Z,19.55
2019-02-16T22:25:06.453Z,21.55
2019-02-16T22:27:33.965Z,22.07
2019-02-16T22:30:01.806Z,21.82
2019-02-16T22:32:29.233Z,20.70
2019-02-16T22:34:56.976Z,21.82
2019-02-16T22:37:24.338Z,22.07
2019-02-16T22:39:51.755Z,23.87
2019-02-16T22:42:19.185Z,22.67
2019-02-16T22:44:46.906Z,21.85
2019-02-16T22:47:14.690Z,20.72
2019-02-16T22:49:42.036Z,20.90
2019-02-16T22:52:09.453Z,21.27
2019-02-16T22:54:36.738Z,24.15
2019-02-16T22:57:04.445Z,23.00
2019-02-16T22:59:31.855Z,26.02
2019-02-16T23:01:59.275Z,25.00
2019-02-16T23:04:27.133Z,24.37
2019-02-16T23:06:54.566Z,24.63
2019-02-16T23:09:26.968Z,23.87
2019-02-16T23:11:54.377Z,21.62
2019-02-16T23:14:24.050Z,22.42
2019-02-16T23:16:51.110Z,21.75
2019-02-16T23:19:18.531Z,22.90
2019-02-16T23:21:45.954Z,22.37
2019-02-16T23:24:13.460Z,21.00
2019-02-16T23:26:40.895Z,21.97
2019-02-16T23:29:08.363Z,21.07
2019-02-16T23:31:35.709Z,21.15
2019-02-16T23:34:03.560Z,21.95
2019-02-16T23:36:30.985Z,22.13
2019-02-16T23:38:58.624Z,21.97
2019-02-16T23:41:26.082Z,20.88
2019-02-16T23:43:53.853Z,22.50
2019-02-16T23:46:21.511Z,21.48
2019-02-16T23:48:48.964Z,21.65
2019-02-16T23:51:16.389Z,22.32
2019-02-16T23:53:43.698Z,20.62
2019-02-16T23:56:11.040Z,22.00
2019-02-16T23:58:48.708Z,21.17
